sensor_id;sensor_type;location;lat;lon;timestamp;P1;durP1;ratioP1;P2;durP2;ratioP2
74612;SDS011;63119;51.788;8.824;2023-08-31T00:01:08;17.58;;;9.07;;
74612;SDS011;63119;51.788;8.824;2023-08-31T00:03:34;12.23;;;6.93;;
74612;SDS011;63119;51.788;8.824;2023-08-31T00:06:01;17.10;;;7.75;;
74612;SDS011;63119;51.788;8.824;2023-08-31T00:08:28;16.17;;;7.75;;
74612;SDS011;63119;51.788;8.824;2023-08-31T00:10:57;13.60;;;7.60;;
74612;SDS011;63119;51.788;8.824;2023-08-31T00:13:23;17.67;;;7.72;;
74612;SDS011;63119;51.788;8.824;2023-08-31T00:15:49;15.88;;;8.30;;
74612;SDS011;63119;51.788;8.824;2023-08-31T00:18:14;13.20;;;7.78;;
74612;SDS011;63119;51.788;8.824;2023-08-31T00:20:41;15.60;;;8.32;;
74612;SDS011;63119;51.788;8.824;2023-08-31T00:23:07;17.42;;;7.80;;
74612;SDS011;63119;51.788;8.824;2023-08-31T00:25:32;17.93;;;8.80;;
74612;SDS011;63119;51.788;8.824;2023-08-31T00:27:57;13.47;;;8.43;;
74612;SDS011;63119;51.788;8.824;2023-08-31T00:30:29;15.77;;;7.28;;
74612;SDS011;63119;51.788;8.824;2023-08-31T00:32:54;15.20;;;7.57;;
74612;SDS011;63119;51.788;8.824;2023-08-31T00:35:20;11.50;;;7.60;;
74612;SDS011;63119;51.788;8.824;2023-08-31T00:37:45;12.57;;;7.40;;
74612;SDS011;63119;51.788;8.824;2023-08-31T00:40:11;16.93;;;7.83;;
74612;SDS011;63119;51.788;8.824;2023-08-31T00:42:39;12.93;;;7.25;;
74612;SDS011;63119;51.788;8.824;2023-08-31T00:45:04;17.00;;;7.95;;
74612;SDS011;63119;51.788;8.824;2023-08-31T00:47:30;11.73;;;7.82;;
74612;SDS011;63119;51.788;8.824;2023-08-31T00:49:56;15.43;;;6.85;;
74612;SDS011;63119;51.788;8.824;2023-08-31T00:52:21;13.95;;;7.97;;
74612;SDS011;63119;51.788;8.824;2023-08-31T00:54:47;14.30;;;7.87;;
74612;SDS011;63119;51.788;8.824;2023-08-31T00:57:16;15.05;;;7.95;;
74612;SDS011;63119;51.788;8.824;2023-08-31T00:59:41;16.87;;;7.67;;
74612;SDS011;63119;51.788;8.824;2023-08-31T01:07:34;18.45;;;6.70;;
74612;SDS011;63119;51.788;8.824;2023-08-31T01:13:10;15.10;;;7.28;;
74612;SDS011;63119;51.788;8.824;2023-08-31T01:15:39;16.80;;;7.97;;
74612;SDS011;63119;51.788;8.824;2023-08-31T01:18:09;16.80;;;7.72;;
74612;SDS011;63119;51.788;8.824;2023-08-31T01:20:45;13.38;;;7.97;;
74612;SDS011;63119;51.788;8.824;2023-08-31T01:23:16;16.05;;;8.40;;
74612;SDS011;63119;51.788;8.824;2023-08-31T01:25:44;20.63;;;8.70;;
74612;SDS011;63119;51.788;8.824;2023-08-31T01:28:11;15.57;;;8.45;;
74612;SDS011;63119;51.788;8.824;2023-08-31T01:30:36;16.58;;;7.85;;
74612;SDS011;63119;51.788;8.824;2023-08-31T01:33:02;13.97;;;8.10;;
74612;SDS011;63119;51.788;8.824;2023-08-31T01:35:27;15.02;;;7.75;;
74612;SDS011;63119;51.788;8.824;2023-08-31T01:37:59;18.38;;;8.98;;
74612;SDS011;63119;51.788;8.824;2023-08-31T01:43:08;14.90;;;8.23;;
74612;SDS011;63119;51.788;8.824;2023-08-31T01:45:35;17.77;;;8.55;;
74612;SDS011;63119;51.788;8.824;2023-08-31T01:48:03;15.40;;;8.75;;
74612;SDS011;63119;51.788;8.824;2023-08-31T01:50:29;15.40;;;7.85;;
74612;SDS011;63119;51.788;8.824;2023-08-31T01:52:54;16.80;;;8.33;;
74612;SDS011;63119;51.788;8.824;2023-08-31T01:55:20;14.98;;;9.25;;
74612;SDS011;63119;51.788;8.824;2023-08-31T01:57:46;14.48;;;9.13;;
74612;SDS011;63119;51.788;8.824;2023-08-31T02:00:13;17.27;;;9.00;;
74612;SDS011;63119;51.788;8.824;2023-08-31T02:02:39;17.08;;;8.45;;
74612;SDS011;63119;51.788;8.824;2023-08-31T02:05:04;18.60;;;9.30;;
74612;SDS011;63119;51.788;8.824;2023-08-31T02:07:30;19.17;;;9.85;;
74612;SDS011;63119;51.788;8.824;2023-08-31T02:09:56;16.57;;;8.83;;
74612;SDS011;63119;51.788;8.824;2023-08-31T02:12:21;19.00;;;8.70;;
74612;SDS011;63119;51.788;8.824;2023-08-31T02:14:47;15.85;;;7.88;;
74612;SDS011;63119;51.788;8.824;2023-08-31T02:17:12;18.23;;;9.73;;
74612;SDS011;63119;51.788;8.824;2023-08-31T02:19:38;17.80;;;8.43;;
74612;SDS011;63119;51.788;8.824;2023-08-31T02:22:03;18.38;;;9.13;;
74612;SDS011;63119;51.788;8.824;2023-08-31T02:24:28;16.27;;;8.33;;
74612;SDS011;63119;51.788;8.824;2023-08-31T02:26:53;19.77;;;9.83;;
74612;SDS011;63119;51.788;8.824;2023-08-31T02:29:19;17.07;;;9.33;;
74612;SDS011;63119;51.788;8.824;2023-08-31T02:31:44;18.37;;;9.63;;
74612;SDS011;63119;51.788;8.824;2023-08-31T02:34:10;17.80;;;8.73;;
74612;SDS011;63119;51.788;8.824;2023-08-31T02:36:35;20.17;;;8.95;;
74612;SDS011;63119;51.788;8.824;2023-08-31T02:39:01;18.75;;;9.05;;
74612;SDS011;63119;51.788;8.824;2023-08-31T02:41:28;23.40;;;9.38;;
74612;SDS011;63119;51.788;8.824;2023-08-31T02:43:54;23.00;;;10.48;;
74612;SDS011;63119;51.788;8.824;2023-08-31T02:46:19;21.43;;;9.80;;
74612;SDS011;63119;51.788;8.824;2023-08-31T02:48:44;23.30;;;8.90;;
74612;SDS011;63119;51.788;8.824;2023-08-31T02:51:09;16.63;;;8.77;;
74612;SDS011;63119;51.788;8.824;2023-08-31T02:53:35;18.80;;;8.93;;
74612;SDS011;63119;51.788;8.824;2023-08-31T02:56:00;18.80;;;9.52;;
74612;SDS011;63119;51.788;8.824;2023-08-31T02:58:26;18.20;;;9.10;;
74612;SDS011;63119;51.788;8.824;2023-08-31T03:00:51;16.57;;;8.17;;
74612;SDS011;63119;51.788;8.824;2023-08-31T03:03:18;21.75;;;8.82;;
74612;SDS011;63119;51.788;8.824;2023-08-31T03:05:44;13.95;;;8.48;;
74612;SDS011;63119;51.788;8.824;2023-08-31T03:08:10;16.35;;;8.38;;
74612;SDS011;63119;51.788;8.824;2023-08-31T03:10:35;14.75;;;7.60;;
74612;SDS011;63119;51.788;8.824;2023-08-31T03:13:01;18.00;;;8.50;;
74612;SDS011;63119;51.788;8.824;2023-08-31T03:15:27;15.02;;;7.97;;
74612;SDS011;63119;51.788;8.824;2023-08-31T03:17:52;15.13;;;9.13;;
74612;SDS011;63119;51.788;8.824;2023-08-31T03:20:17;14.03;;;6.90;;
74612;SDS011;63119;51.788;8.824;2023-08-31T03:22:43;11.20;;;5.97;;
74612;SDS011;63119;51.788;8.824;2023-08-31T03:25:08;14.83;;;6.30;;
74612;SDS011;63119;51.788;8.824;2023-08-31T03:27:33;10.97;;;5.40;;
74612;SDS011;63119;51.788;8.824;2023-08-31T03:29:59;12.20;;;5.97;;
74612;SDS011;63119;51.788;8.824;2023-08-31T03:32:24;10.73;;;4.97;;
74612;SDS011;63119;51.788;8.824;2023-08-31T03:34:49;10.83;;;5.17;;
74612;SDS011;63119;51.788;8.824;2023-08-31T03:37:15;10.13;;;4.55;;
74612;SDS011;63119;51.788;8.824;2023-08-31T03:39:40;8.55;;;4.63;;
74612;SDS011;63119;51.788;8.824;2023-08-31T03:42:06;10.82;;;5.35;;
74612;SDS011;63119;51.788;8.824;2023-08-31T03:44:31;8.93;;;5.03;;
74612;SDS011;63119;51.788;8.824;2023-08-31T03:46:57;11.07;;;5.45;;
74612;SDS011;63119;51.788;8.824;2023-08-31T03:49:22;10.77;;;5.40;;
74612;SDS011;63119;51.788;8.824;2023-08-31T03:51:47;11.83;;;6.07;;
74612;SDS011;63119;51.788;8.824;2023-08-31T03:54:13;11.27;;;5.70;;
74612;SDS011;63119;51.788;8.824;2023-08-31T03:56:38;8.60;;;5.67;;
74612;SDS011;63119;51.788;8.824;2023-08-31T03:59:04;11.15;;;5.35;;
74612;SDS011;63119;51.788;8.824;2023-08-31T04:01:30;11.90;;;5.40;;
74612;SDS011;63119;51.788;8.824;2023-08-31T04:03:55;11.37;;;5.60;;
74612;SDS011;63119;51.788;8.824;2023-08-31T04:06:21;11.50;;;5.95;;
74612;SDS011;63119;51.788;8.824;2023-08-31T04:08:46;11.80;;;5.90;;
74612;SDS011;63119;51.788;8.824;2023-08-31T04:11:11;9.47;;;5.20;;
74612;SDS011;63119;51.788;8.824;2023-08-31T04:13:37;15.70;;;6.37;;
74612;SDS011;63119;51.788;8.824;2023-08-31T04:16:02;9.03;;;5.50;;
74612;SDS011;63119;51.788;8.824;2023-08-31T04:18:28;10.10;;;5.30;;
74612;SDS011;63119;51.788;8.824;2023-08-31T04:20:54;9.50;;;5.40;;
74612;SDS011;63119;51.788;8.824;2023-08-31T04:23:19;10.23;;;6.25;;
74612;SDS011;63119;51.788;8.824;2023-08-31T04:25:45;7.57;;;5.15;;
74612;SDS011;63119;51.788;8.824;2023-08-31T04:28:12;9.30;;;5.13;;
74612;SDS011;63119;51.788;8.824;2023-08-31T04:30:38;13.05;;;5.13;;
74612;SDS011;63119;51.788;8.824;2023-08-31T04:33:05;9.73;;;5.00;;
74612;SDS011;63119;51.788;8.824;2023-08-31T04:35:31;12.00;;;5.50;;
74612;SDS011;63119;51.788;8.824;2023-08-31T04:37:56;9.93;;;5.53;;
74612;SDS011;63119;51.788;8.824;2023-08-31T04:40:22;9.07;;;4.75;;
74612;SDS011;63119;51.788;8.824;2023-08-31T04:42:47;11.70;;;5.07;;
74612;SDS011;63119;51.788;8.824;2023-08-31T04:45:13;9.60;;;5.03;;
74612;SDS011;63119;51.788;8.824;2023-08-31T04:47:38;7.97;;;4.70;;
74612;SDS011;63119;51.788;8.824;2023-08-31T04:50:03;8.80;;;4.87;;
74612;SDS011;63119;51.788;8.824;2023-08-31T04:52:31;9.55;;;5.15;;
74612;SDS011;63119;51.788;8.824;2023-08-31T04:54:56;10.30;;;5.18;;
74612;SDS011;63119;51.788;8.824;2023-08-31T04:57:22;9.30;;;4.60;;
74612;SDS011;63119;51.788;8.824;2023-08-31T04:59:48;12.63;;;5.50;;
74612;SDS011;63119;51.788;8.824;2023-08-31T05:02:14;11.03;;;5.03;;
74612;SDS011;63119;51.788;8.824;2023-08-31T05:04:39;9.43;;;5.33;;
74612;SDS011;63119;51.788;8.824;2023-08-31T05:07:04;10.97;;;5.00;;
74612;SDS011;63119;51.788;8.824;2023-08-31T05:09:29;9.03;;;5.07;;
74612;SDS011;63119;51.788;8.824;2023-08-31T05:11:59;9.45;;;5.25;;
74612;SDS011;63119;51.788;8.824;2023-08-31T05:14:25;9.50;;;5.28;;
74612;SDS011;63119;51.788;8.824;2023-08-31T05:16:50;9.27;;;5.53;;
74612;SDS011;63119;51.788;8.824;2023-08-31T05:19:15;9.23;;;4.73;;
74612;SDS011;63119;51.788;8.824;2023-08-31T05:21:41;10.53;;;5.27;;
74612;SDS011;63119;51.788;8.824;2023-08-31T05:24:06;9.57;;;5.30;;
74612;SDS011;63119;51.788;8.824;2023-08-31T05:26:31;8.80;;;5.38;;
74612;SDS011;63119;51.788;8.824;2023-08-31T05:28:57;10.27;;;5.83;;
74612;SDS011;63119;51.788;8.824;2023-08-31T05:31:22;10.60;;;6.13;;
74612;SDS011;63119;51.788;8.824;2023-08-31T05:33:47;13.03;;;6.27;;
74612;SDS011;63119;51.788;8.824;2023-08-31T05:36:12;11.57;;;7.10;;
74612;SDS011;63119;51.788;8.824;2023-08-31T05:38:38;11.90;;;6.63;;
74612;SDS011;63119;51.788;8.824;2023-08-31T05:41:06;10.98;;;6.95;;
74612;SDS011;63119;51.788;8.824;2023-08-31T05:43:36;12.32;;;7.68;;
74612;SDS011;63119;51.788;8.824;2023-08-31T05:46:04;12.80;;;6.88;;
74612;SDS011;63119;51.788;8.824;2023-08-31T05:48:30;13.50;;;6.95;;
74612;SDS011;63119;51.788;8.824;2023-08-31T05:50:56;12.07;;;7.10;;
74612;SDS011;63119;51.788;8.824;2023-08-31T05:53:21;11.70;;;7.13;;
74612;SDS011;63119;51.788;8.824;2023-08-31T05:55:47;13.80;;;7.93;;
74612;SDS011;63119;51.788;8.824;2023-08-31T05:58:12;11.68;;;7.15;;
74612;SDS011;63119;51.788;8.824;2023-08-31T06:00:37;16.93;;;8.17;;
74612;SDS011;63119;51.788;8.824;2023-08-31T06:03:03;13.38;;;8.35;;
74612;SDS011;63119;51.788;8.824;2023-08-31T06:05:30;12.38;;;7.90;;
74612;SDS011;63119;51.788;8.824;2023-08-31T06:07:56;14.32;;;8.23;;
74612;SDS011;63119;51.788;8.824;2023-08-31T06:10:22;11.65;;;7.18;;
74612;SDS011;63119;51.788;8.824;2023-08-31T06:12:48;14.05;;;7.15;;
74612;SDS011;63119;51.788;8.824;2023-08-31T06:15:13;13.60;;;8.13;;
74612;SDS011;63119;51.788;8.824;2023-08-31T06:17:40;11.73;;;7.45;;
74612;SDS011;63119;51.788;8.824;2023-08-31T06:20:06;13.07;;;7.13;;
74612;SDS011;63119;51.788;8.824;2023-08-31T06:22:33;11.73;;;7.75;;
74612;SDS011;63119;51.788;8.824;2023-08-31T06:24:58;12.27;;;7.45;;
74612;SDS011;63119;51.788;8.824;2023-08-31T06:27:24;13.03;;;7.77;;
74612;SDS011;63119;51.788;8.824;2023-08-31T06:29:52;13.32;;;7.30;;
74612;SDS011;63119;51.788;8.824;2023-08-31T06:32:17;17.42;;;7.13;;
74612;SDS011;63119;51.788;8.824;2023-08-31T06:34:43;10.32;;;6.78;;
74612;SDS011;63119;51.788;8.824;2023-08-31T06:37:09;10.38;;;6.72;;
74612;SDS011;63119;51.788;8.824;2023-08-31T06:39:34;12.17;;;6.60;;
74612;SDS011;63119;51.788;8.824;2023-08-31T06:41:59;8.52;;;5.93;;
74612;SDS011;63119;51.788;8.824;2023-08-31T06:44:25;9.87;;;6.43;;
74612;SDS011;63119;51.788;8.824;2023-08-31T06:46:50;11.10;;;6.37;;
74612;SDS011;63119;51.788;8.824;2023-08-31T06:49:15;10.83;;;5.87;;
74612;SDS011;63119;51.788;8.824;2023-08-31T06:51:40;9.07;;;6.00;;
74612;SDS011;63119;51.788;8.824;2023-08-31T06:54:06;12.47;;;6.20;;
74612;SDS011;63119;51.788;8.824;2023-08-31T06:56:32;11.20;;;5.90;;
74612;SDS011;63119;51.788;8.824;2023-08-31T06:58:58;11.18;;;5.60;;
74612;SDS011;63119;51.788;8.824;2023-08-31T07:01:23;8.27;;;5.67;;
74612;SDS011;63119;51.788;8.824;2023-08-31T07:03:49;9.77;;;6.30;;
74612;SDS011;63119;51.788;8.824;2023-08-31T07:06:14;13.40;;;6.47;;
74612;SDS011;63119;51.788;8.824;2023-08-31T07:08:39;10.73;;;6.70;;
74612;SDS011;63119;51.788;8.824;2023-08-31T07:11:05;9.57;;;5.78;;
74612;SDS011;63119;51.788;8.824;2023-08-31T07:13:31;10.00;;;5.45;;
74612;SDS011;63119;51.788;8.824;2023-08-31T07:15:57;8.07;;;5.18;;
74612;SDS011;63119;51.788;8.824;2023-08-31T07:18:22;9.55;;;5.82;;
74612;SDS011;63119;51.788;8.824;2023-08-31T07:20:47;12.68;;;5.32;;
74612;SDS011;63119;51.788;8.824;2023-08-31T07:23:13;6.67;;;4.30;;
74612;SDS011;63119;51.788;8.824;2023-08-31T07:25:38;7.95;;;4.57;;
74612;SDS011;63119;51.788;8.824;2023-08-31T07:28:04;8.10;;;4.35;;
74612;SDS011;63119;51.788;8.824;2023-08-31T07:30:29;6.80;;;4.18;;
74612;SDS011;63119;51.788;8.824;2023-08-31T07:32:55;7.63;;;4.23;;
74612;SDS011;63119;51.788;8.824;2023-08-31T07:35:20;5.13;;;4.07;;
74612;SDS011;63119;51.788;8.824;2023-08-31T07:37:46;6.32;;;3.75;;
74612;SDS011;63119;51.788;8.824;2023-08-31T07:40:11;7.77;;;3.60;;
74612;SDS011;63119;51.788;8.824;2023-08-31T07:42:37;6.55;;;3.97;;
74612;SDS011;63119;51.788;8.824;2023-08-31T07:45:03;8.30;;;4.15;;
74612;SDS011;63119;51.788;8.824;2023-08-31T07:47:30;5.65;;;3.72;;
74612;SDS011;63119;51.788;8.824;2023-08-31T07:49:56;6.05;;;3.30;;
74612;SDS011;63119;51.788;8.824;2023-08-31T07:52:21;5.53;;;3.77;;
74612;SDS011;63119;51.788;8.824;2023-08-31T07:54:46;4.40;;;3.13;;
74612;SDS011;63119;51.788;8.824;2023-08-31T07:57:12;5.30;;;3.77;;
74612;SDS011;63119;51.788;8.824;2023-08-31T07:59:37;5.63;;;2.93;;
74612;SDS011;63119;51.788;8.824;2023-08-31T08:02:04;5.18;;;3.05;;
74612;SDS011;63119;51.788;8.824;2023-08-31T08:04:30;5.88;;;3.00;;
74612;SDS011;63119;51.788;8.824;2023-08-31T08:06:56;6.07;;;3.42;;
74612;SDS011;63119;51.788;8.824;2023-08-31T08:09:21;6.43;;;2.80;;
74612;SDS011;63119;51.788;8.824;2023-08-31T08:11:46;5.27;;;2.87;;
74612;SDS011;63119;51.788;8.824;2023-08-31T08:14:11;5.47;;;2.63;;
74612;SDS011;63119;51.788;8.824;2023-08-31T08:16:37;8.40;;;2.60;;
74612;SDS011;63119;51.788;8.824;2023-08-31T08:19:02;5.50;;;2.70;;
74612;SDS011;63119;51.788;8.824;2023-08-31T08:21:27;5.55;;;2.60;;
74612;SDS011;63119;51.788;8.824;2023-08-31T08:23:53;3.87;;;2.30;;
74612;SDS011;63119;51.788;8.824;2023-08-31T08:26:18;6.90;;;2.60;;
74612;SDS011;63119;51.788;8.824;2023-08-31T08:28:43;8.27;;;2.65;;
74612;SDS011;63119;51.788;8.824;2023-08-31T08:31:09;6.13;;;3.22;;
74612;SDS011;63119;51.788;8.824;2023-08-31T08:33:34;6.27;;;2.97;;
74612;SDS011;63119;51.788;8.824;2023-08-31T08:36:00;6.33;;;3.30;;
74612;SDS011;63119;51.788;8.824;2023-08-31T08:38:25;7.05;;;3.47;;
74612;SDS011;63119;51.788;8.824;2023-08-31T08:40:50;11.43;;;3.92;;
74612;SDS011;63119;51.788;8.824;2023-08-31T08:43:16;7.45;;;3.40;;
74612;SDS011;63119;51.788;8.824;2023-08-31T08:45:49;6.15;;;3.55;;
74612;SDS011;63119;51.788;8.824;2023-08-31T08:48:16;4.88;;;3.85;;
74612;SDS011;63119;51.788;8.824;2023-08-31T08:50:42;6.75;;;3.63;;
74612;SDS011;63119;51.788;8.824;2023-08-31T08:53:08;5.45;;;3.47;;
74612;SDS011;63119;51.788;8.824;2023-08-31T08:55:34;6.07;;;3.40;;
74612;SDS011;63119;51.788;8.824;2023-08-31T08:57:59;8.43;;;4.73;;
74612;SDS011;63119;51.788;8.824;2023-08-31T09:00:25;6.95;;;3.85;;
74612;SDS011;63119;51.788;8.824;2023-08-31T09:02:51;5.55;;;3.15;;
74612;SDS011;63119;51.788;8.824;2023-08-31T09:05:16;6.17;;;2.67;;
74612;SDS011;63119;51.788;8.824;2023-08-31T09:08:01;5.13;;;3.10;;
74612;SDS011;63119;51.788;8.824;2023-08-31T09:10:33;6.03;;;3.35;;
74612;SDS011;63119;51.788;8.824;2023-08-31T09:13:09;9.48;;;3.67;;
74612;SDS011;63119;51.788;8.824;2023-08-31T09:18:16;7.60;;;3.45;;
74612;SDS011;63119;51.788;8.824;2023-08-31T09:20:51;8.27;;;3.40;;
74612;SDS011;63119;51.788;8.824;2023-08-31T09:23:17;5.22;;;3.20;;
74612;SDS011;63119;51.788;8.824;2023-08-31T09:25:43;5.27;;;3.53;;
74612;SDS011;63119;51.788;8.824;2023-08-31T09:28:11;5.70;;;3.40;;
74612;SDS011;63119;51.788;8.824;2023-08-31T09:30:37;6.20;;;3.58;;
74612;SDS011;63119;51.788;8.824;2023-08-31T09:33:24;8.73;;;3.97;;
74612;SDS011;63119;51.788;8.824;2023-08-31T09:35:52;7.00;;;3.60;;
74612;SDS011;63119;51.788;8.824;2023-08-31T09:38:20;6.75;;;3.72;;
74612;SDS011;63119;51.788;8.824;2023-08-31T09:40:46;7.90;;;4.32;;
74612;SDS011;63119;51.788;8.824;2023-08-31T09:43:12;6.63;;;4.00;;
74612;SDS011;63119;51.788;8.824;2023-08-31T09:45:43;6.03;;;3.78;;
74612;SDS011;63119;51.788;8.824;2023-08-31T09:48:08;9.82;;;4.00;;
74612;SDS011;63119;51.788;8.824;2023-08-31T09:50:34;6.93;;;4.00;;
74612;SDS011;63119;51.788;8.824;2023-08-31T09:53:03;7.07;;;3.63;;
74612;SDS011;63119;51.788;8.824;2023-08-31T09:55:30;6.75;;;3.85;;
74612;SDS011;63119;51.788;8.824;2023-08-31T09:57:57;5.85;;;3.42;;
74612;SDS011;63119;51.788;8.824;2023-08-31T10:00:25;6.50;;;3.83;;
74612;SDS011;63119;51.788;8.824;2023-08-31T10:02:51;6.65;;;3.55;;
74612;SDS011;63119;51.788;8.824;2023-08-31T10:07:45;5.45;;;3.05;;
74612;SDS011;63119;51.788;8.824;2023-08-31T10:10:10;6.13;;;3.65;;
74612;SDS011;63119;51.788;8.824;2023-08-31T10:12:37;5.70;;;3.72;;
74612;SDS011;63119;51.788;8.824;2023-08-31T10:15:04;7.18;;;3.00;;
74612;SDS011;63119;51.788;8.824;2023-08-31T10:17:30;5.57;;;3.80;;
74612;SDS011;63119;51.788;8.824;2023-08-31T10:19:56;5.63;;;2.70;;
74612;SDS011;63119;51.788;8.824;2023-08-31T10:22:21;4.80;;;3.13;;
74612;SDS011;63119;51.788;8.824;2023-08-31T10:24:57;4.55;;;2.35;;
74612;SDS011;63119;51.788;8.824;2023-08-31T10:27:23;3.58;;;2.00;;
74612;SDS011;63119;51.788;8.824;2023-08-31T10:29:48;6.77;;;2.63;;
74612;SDS011;63119;51.788;8.824;2023-08-31T10:32:17;3.95;;;1.88;;
74612;SDS011;63119;51.788;8.824;2023-08-31T10:35:20;6.47;;;2.40;;
74612;SDS011;63119;51.788;8.824;2023-08-31T10:37:39;4.53;;;2.10;;
74612;SDS011;63119;51.788;8.824;2023-08-31T10:40:06;4.80;;;2.00;;
74612;SDS011;63119;51.788;8.824;2023-08-31T10:42:32;3.30;;;1.73;;
74612;SDS011;63119;51.788;8.824;2023-08-31T10:45:07;6.23;;;1.70;;
74612;SDS011;63119;51.788;8.824;2023-08-31T10:47:42;3.13;;;1.38;;
74612;SDS011;63119;51.788;8.824;2023-08-31T10:50:20;2.63;;;1.60;;
74612;SDS011;63119;51.788;8.824;2023-08-31T10:52:47;2.85;;;1.50;;
74612;SDS011;63119;51.788;8.824;2023-08-31T10:55:12;2.95;;;1.80;;
74612;SDS011;63119;51.788;8.824;2023-08-31T10:57:37;6.75;;;2.30;;
74612;SDS011;63119;51.788;8.824;2023-08-31T11:00:05;4.47;;;1.50;;
74612;SDS011;63119;51.788;8.824;2023-08-31T11:02:36;4.90;;;1.60;;
74612;SDS011;63119;51.788;8.824;2023-08-31T11:05:06;3.55;;;1.50;;
74612;SDS011;63119;51.788;8.824;2023-08-31T11:07:33;4.28;;;2.33;;
74612;SDS011;63119;51.788;8.824;2023-08-31T11:10:21;3.88;;;1.70;;
74612;SDS011;63119;51.788;8.824;2023-08-31T11:12:53;4.97;;;1.42;;
74612;SDS011;63119;51.788;8.824;2023-08-31T11:15:22;3.47;;;1.38;;
74612;SDS011;63119;51.788;8.824;2023-08-31T11:17:51;3.33;;;1.20;;
74612;SDS011;63119;51.788;8.824;2023-08-31T11:20:18;3.15;;;1.30;;
74612;SDS011;63119;51.788;8.824;2023-08-31T11:22:46;3.97;;;1.77;;
74612;SDS011;63119;51.788;8.824;2023-08-31T11:25:15;4.22;;;1.67;;
74612;SDS011;63119;51.788;8.824;2023-08-31T11:27:41;4.15;;;1.38;;
74612;SDS011;63119;51.788;8.824;2023-08-31T11:30:13;8.25;;;1.58;;
74612;SDS011;63119;51.788;8.824;2023-08-31T11:32:45;2.47;;;1.20;;
74612;SDS011;63119;51.788;8.824;2023-08-31T11:35:14;3.55;;;1.20;;
74612;SDS011;63119;51.788;8.824;2023-08-31T11:37:41;7.35;;;1.75;;
74612;SDS011;63119;51.788;8.824;2023-08-31T11:40:08;3.25;;;1.10;;
74612;SDS011;63119;51.788;8.824;2023-08-31T11:42:33;6.28;;;1.63;;
74612;SDS011;63119;51.788;8.824;2023-08-31T11:44:59;3.60;;;1.30;;
74612;SDS011;63119;51.788;8.824;2023-08-31T11:47:24;4.32;;;1.40;;
74612;SDS011;63119;51.788;8.824;2023-08-31T11:49:50;2.38;;;1.35;;
74612;SDS011;63119;51.788;8.824;2023-08-31T11:52:16;3.05;;;1.35;;
74612;SDS011;63119;51.788;8.824;2023-08-31T11:54:42;2.20;;;1.42;;
74612;SDS011;63119;51.788;8.824;2023-08-31T11:57:08;3.40;;;1.67;;
74612;SDS011;63119;51.788;8.824;2023-08-31T11:59:38;4.13;;;1.75;;
74612;SDS011;63119;51.788;8.824;2023-08-31T12:02:07;2.35;;;1.88;;
74612;SDS011;63119;51.788;8.824;2023-08-31T12:04:33;3.58;;;1.85;;
74612;SDS011;63119;51.788;8.824;2023-08-31T12:07:06;3.00;;;1.77;;
74612;SDS011;63119;51.788;8.824;2023-08-31T12:09:31;2.17;;;1.50;;
74612;SDS011;63119;51.788;8.824;2023-08-31T12:11:57;3.90;;;1.48;;
74612;SDS011;63119;51.788;8.824;2023-08-31T12:14:23;3.58;;;1.90;;
74612;SDS011;63119;51.788;8.824;2023-08-31T12:16:49;4.20;;;1.88;;
74612;SDS011;63119;51.788;8.824;2023-08-31T12:19:16;4.85;;;2.80;;
74612;SDS011;63119;51.788;8.824;2023-08-31T12:21:42;4.22;;;1.50;;
74612;SDS011;63119;51.788;8.824;2023-08-31T12:24:09;3.72;;;1.50;;
74612;SDS011;63119;51.788;8.824;2023-08-31T12:26:34;2.90;;;1.60;;
74612;SDS011;63119;51.788;8.824;2023-08-31T12:29:00;3.58;;;1.60;;
74612;SDS011;63119;51.788;8.824;2023-08-31T12:31:25;3.47;;;1.48;;
74612;SDS011;63119;51.788;8.824;2023-08-31T12:33:50;3.00;;;1.57;;
74612;SDS011;63119;51.788;8.824;2023-08-31T12:36:16;4.55;;;1.48;;
74612;SDS011;63119;51.788;8.824;2023-08-31T12:38:41;3.15;;;1.65;;
74612;SDS011;63119;51.788;8.824;2023-08-31T12:41:06;4.27;;;1.70;;
74612;SDS011;63119;51.788;8.824;2023-08-31T12:43:32;2.38;;;1.40;;
74612;SDS011;63119;51.788;8.824;2023-08-31T12:45:58;2.28;;;1.40;;
74612;SDS011;63119;51.788;8.824;2023-08-31T12:48:23;4.43;;;1.73;;
74612;SDS011;63119;51.788;8.824;2023-08-31T12:50:49;3.60;;;2.03;;
74612;SDS011;63119;51.788;8.824;2023-08-31T12:53:15;2.63;;;1.40;;
74612;SDS011;63119;51.788;8.824;2023-08-31T12:55:40;2.97;;;1.30;;
74612;SDS011;63119;51.788;8.824;2023-08-31T12:58:05;1.70;;;1.20;;
74612;SDS011;63119;51.788;8.824;2023-08-31T13:00:31;1.63;;;1.13;;
74612;SDS011;63119;51.788;8.824;2023-08-31T13:02:56;5.23;;;1.73;;
74612;SDS011;63119;51.788;8.824;2023-08-31T13:05:21;2.90;;;1.67;;
74612;SDS011;63119;51.788;8.824;2023-08-31T13:07:47;2.07;;;1.30;;
74612;SDS011;63119;51.788;8.824;2023-08-31T13:10:12;4.00;;;1.38;;
74612;SDS011;63119;51.788;8.824;2023-08-31T13:12:37;3.70;;;1.60;;
74612;SDS011;63119;51.788;8.824;2023-08-31T13:15:03;2.15;;;1.38;;
74612;SDS011;63119;51.788;8.824;2023-08-31T13:17:28;4.40;;;1.50;;
74612;SDS011;63119;51.788;8.824;2023-08-31T13:19:54;5.23;;;1.40;;
74612;SDS011;63119;51.788;8.824;2023-08-31T13:22:22;3.97;;;1.40;;
74612;SDS011;63119;51.788;8.824;2023-08-31T13:24:47;3.08;;;1.55;;
74612;SDS011;63119;51.788;8.824;2023-08-31T13:27:12;2.83;;;1.30;;
74612;SDS011;63119;51.788;8.824;2023-08-31T13:29:38;3.17;;;1.40;;
74612;SDS011;63119;51.788;8.824;2023-08-31T13:32:04;3.08;;;1.50;;
74612;SDS011;63119;51.788;8.824;2023-08-31T13:34:30;3.25;;;1.60;;
74612;SDS011;63119;51.788;8.824;2023-08-31T13:36:55;2.93;;;1.60;;
74612;SDS011;63119;51.788;8.824;2023-08-31T13:39:21;2.33;;;1.30;;
74612;SDS011;63119;51.788;8.824;2023-08-31T13:41:47;4.10;;;1.75;;
74612;SDS011;63119;51.788;8.824;2023-08-31T13:44:13;5.30;;;1.85;;
74612;SDS011;63119;51.788;8.824;2023-08-31T13:46:38;4.23;;;1.73;;
74612;SDS011;63119;51.788;8.824;2023-08-31T13:49:03;8.10;;;1.67;;
74612;SDS011;63119;51.788;8.824;2023-08-31T13:51:29;3.45;;;1.80;;
74612;SDS011;63119;51.788;8.824;2023-08-31T13:53:54;3.70;;;1.53;;
74612;SDS011;63119;51.788;8.824;2023-08-31T13:56:19;4.83;;;2.00;;
74612;SDS011;63119;51.788;8.824;2023-08-31T13:58:45;5.10;;;1.60;;
74612;SDS011;63119;51.788;8.824;2023-08-31T14:01:10;2.50;;;1.30;;
74612;SDS011;63119;51.788;8.824;2023-08-31T14:03:38;4.45;;;1.65;;
74612;SDS011;63119;51.788;8.824;2023-08-31T14:06:03;3.60;;;1.30;;
74612;SDS011;63119;51.788;8.824;2023-08-31T14:08:29;4.00;;;1.60;;
74612;SDS011;63119;51.788;8.824;2023-08-31T14:10:54;4.27;;;2.07;;
74612;SDS011;63119;51.788;8.824;2023-08-31T14:13:20;5.35;;;1.48;;
74612;SDS011;63119;51.788;8.824;2023-08-31T14:15:46;4.47;;;1.38;;
74612;SDS011;63119;51.788;8.824;2023-08-31T14:18:11;3.58;;;1.63;;
74612;SDS011;63119;51.788;8.824;2023-08-31T14:20:38;3.50;;;1.45;;
74612;SDS011;63119;51.788;8.824;2023-08-31T14:23:03;6.10;;;1.85;;
74612;SDS011;63119;51.788;8.824;2023-08-31T14:25:33;7.18;;;2.30;;
74612;SDS011;63119;51.788;8.824;2023-08-31T14:27:59;5.28;;;2.50;;
74612;SDS011;63119;51.788;8.824;2023-08-31T14:30:25;5.57;;;2.10;;
74612;SDS011;63119;51.788;8.824;2023-08-31T14:32:50;5.40;;;2.07;;
74612;SDS011;63119;51.788;8.824;2023-08-31T14:35:16;3.08;;;1.95;;
74612;SDS011;63119;51.788;8.824;2023-08-31T14:37:41;3.00;;;1.40;;
74612;SDS011;63119;51.788;8.824;2023-08-31T14:40:07;3.83;;;1.40;;
74612;SDS011;63119;51.788;8.824;2023-08-31T14:42:32;2.28;;;1.00;;
74612;SDS011;63119;51.788;8.824;2023-08-31T14:44:58;3.13;;;1.17;;
74612;SDS011;63119;51.788;8.824;2023-08-31T14:47:24;1.15;;;0.73;;
74612;SDS011;63119;51.788;8.824;2023-08-31T14:49:49;0.80;;;0.63;;
74612;SDS011;63119;51.788;8.824;2023-08-31T14:52:14;2.00;;;0.90;;
74612;SDS011;63119;51.788;8.824;2023-08-31T14:54:40;1.90;;;0.70;;